createdAt,value
2023-01-21T00:02:17.006Z,1.62
2023-01-21T00:06:09.788Z,1.62
2023-01-21T00:10:02.606Z,1.49
2023-01-21T00:13:55.412Z,1.56
2023-01-21T00:17:48.103Z,1.62
2023-01-21T00:21:40.948Z,1.60
2023-01-21T00:25:33.542Z,1.63
2023-01-21T00:29:26.639Z,1.53
2023-01-21T00:33:19.496Z,1.60
2023-01-21T00:37:12.484Z,1.49
2023-01-21T00:41:07.476Z,1.66
2023-01-21T00:45:00.374Z,1.55
2023-01-21T00:48:56.211Z,1.56
2023-01-21T00:52:49.306Z,1.74
2023-01-21T00:56:41.972Z,1.50
2023-01-21T01:00:34.688Z,1.56
2023-01-21T01:04:27.688Z,1.55
2023-01-21T01:08:20.402Z,1.56
2023-01-21T01:12:13.212Z,1.52
2023-01-21T01:16:07.270Z,1.47
2023-01-21T01:20:00.059Z,1.49
2023-01-21T01:23:53.868Z,1.60
2023-01-21T01:27:46.542Z,1.55
2023-01-21T01:31:39.659Z,1.50
2023-01-21T01:35:33.184Z,1.46
2023-01-21T01:39:25.986Z,1.47
2023-01-21T01:43:21.647Z,1.55
2023-01-21T01:47:15.208Z,1.52
2023-01-21T01:51:08.654Z,1.47
2023-01-21T01:55:03.444Z,1.39
2023-01-21T01:58:56.526Z,1.52
2023-01-21T02:03:09.294Z,1.47
2023-01-21T02:07:02.589Z,1.45
2023-01-21T02:10:56.754Z,1.45
2023-01-21T02:14:49.975Z,1.40
2023-01-21T02:19:07.017Z,1.52
2023-01-21T02:23:05.150Z,1.52
2023-01-21T02:27:07.735Z,1.42
2023-01-21T02:31:33.041Z,1.43
2023-01-21T02:35:35.781Z,1.49
2023-01-21T02:39:37.406Z,1.49
2023-01-21T02:43:43.382Z,1.53
2023-01-21T02:47:50.085Z,1.46
2023-01-21T02:51:47.623Z,1.40
2023-01-21T02:55:43.256Z,1.47
2023-01-21T02:59:37.982Z,1.49
2023-01-21T03:03:48.631Z,1.42
2023-01-21T03:08:04.699Z,1.53
2023-01-21T03:12:20.443Z,1.49
2023-01-21T03:16:36.465Z,1.52
2023-01-21T03:20:35.301Z,1.46
2023-01-21T03:24:28.161Z,1.42
2023-01-21T03:28:24.600Z,1.38
2023-01-21T03:32:21.825Z,1.40
2023-01-21T03:36:37.569Z,1.43
2023-01-21T03:40:37.296Z,1.42
2023-01-21T03:44:30.155Z,1.42
2023-01-21T03:48:31.691Z,1.36
2023-01-21T03:52:26.116Z,1.34
2023-01-21T03:56:18.842Z,1.47
2023-01-21T04:00:13.538Z,1.43
2023-01-21T04:04:06.815Z,1.35
2023-01-21T04:07:59.492Z,1.42
2023-01-21T04:11:52.165Z,1.45
2023-01-21T04:15:44.837Z,1.45
2023-01-21T04:19:37.549Z,1.56
2023-01-21T04:23:30.365Z,1.55
2023-01-21T04:27:23.019Z,1.50
2023-01-21T04:31:15.765Z,1.59
2023-01-21T04:35:08.831Z,1.52
2023-01-21T04:39:01.545Z,1.49
2023-01-21T04:42:54.985Z,1.53
2023-01-21T04:46:47.475Z,1.49
2023-01-21T04:50:40.331Z,1.47
2023-01-21T04:54:33.217Z,1.57
2023-01-21T04:58:26.809Z,1.57
2023-01-21T05:02:19.560Z,1.55
2023-01-21T05:06:12.217Z,1.57
2023-01-21T05:10:05.445Z,1.50
2023-01-21T05:13:58.232Z,1.45
2023-01-21T05:17:50.830Z,1.52
2023-01-21T05:21:44.562Z,1.55
2023-01-21T05:25:37.137Z,1.56
2023-01-21T05:29:29.764Z,1.49
2023-01-21T05:33:26.444Z,1.55
2023-01-21T05:37:19.390Z,1.50
2023-01-21T05:41:12.177Z,1.57
2023-01-21T05:45:05.386Z,1.55
2023-01-21T05:48:58.078Z,1.60
2023-01-21T05:52:50.956Z,1.57
2023-01-21T05:56:43.663Z,1.57
2023-01-21T06:00:36.513Z,1.55
2023-01-21T06:04:30.890Z,1.47
2023-01-21T06:08:23.566Z,1.42
2023-01-21T06:12:16.297Z,1.40
2023-01-21T06:16:09.062Z,1.40
2023-01-21T06:20:01.784Z,1.43
2023-01-21T06:23:54.423Z,1.45
2023-01-21T06:27:47.026Z,1.46
2023-01-21T06:31:40.406Z,1.50
2023-01-21T06:35:33.115Z,1.47
2023-01-21T06:39:25.916Z,1.49
2023-01-21T06:43:18.850Z,1.49
2023-01-21T06:47:12.067Z,1.49
2023-01-21T06:51:05.408Z,1.49
2023-01-21T06:54:58.132Z,1.42
2023-01-21T06:58:50.818Z,1.45
2023-01-21T07:02:43.498Z,1.53
2023-01-21T07:06:37.127Z,1.64
2023-01-21T07:10:29.984Z,1.63
2023-01-21T07:14:23.548Z,1.60
2023-01-21T07:18:16.750Z,1.66
2023-01-21T07:22:09.968Z,1.71
2023-01-21T07:26:03.224Z,1.64
2023-01-21T07:29:55.759Z,1.66
2023-01-21T07:33:48.522Z,1.74
2023-01-21T07:37:41.549Z,1.78
2023-01-21T07:41:34.543Z,1.81
2023-01-21T07:45:27.129Z,1.84
2023-01-21T07:49:20.042Z,1.78
2023-01-21T07:53:13.857Z,1.93
2023-01-21T07:57:15.552Z,1.91
2023-01-21T08:01:09.814Z,1.87
2023-01-21T08:05:02.872Z,1.83
2023-01-21T08:08:55.789Z,1.78
2023-01-21T08:12:48.268Z,1.93
2023-01-21T08:16:41.537Z,1.90
2023-01-21T08:20:34.215Z,1.94
2023-01-21T08:24:26.892Z,1.83
2023-01-21T08:28:19.440Z,1.83
2023-01-21T08:32:12.231Z,1.93
2023-01-21T08:36:06.703Z,1.81
2023-01-21T08:39:59.739Z,1.90
2023-01-21T08:43:52.463Z,1.85
2023-01-21T08:47:45.197Z,1.91
2023-01-21T08:51:38.056Z,1.95
2023-01-21T08:55:30.841Z,2.04
2023-01-21T08:59:28.915Z,2.04
2023-01-21T09:03:21.725Z,2.08
2023-01-21T09:07:14.668Z,2.05
2023-01-21T09:11:09.330Z,2.11
2023-01-21T09:15:02.137Z,2.03
2023-01-21T09:18:55.496Z,2.03
2023-01-21T09:22:48.010Z,2.03
2023-01-21T09:26:44.317Z,2.00
2023-01-21T09:30:36.977Z,2.03
2023-01-21T09:34:29.847Z,2.07
2023-01-21T09:38:23.296Z,2.05
2023-01-21T09:42:24.048Z,2.10
2023-01-21T09:46:43.071Z,2.20
2023-01-21T09:50:39.678Z,2.17
2023-01-21T09:54:34.196Z,2.33
2023-01-21T09:58:44.704Z,2.36
2023-01-21T10:02:54.897Z,2.38
2023-01-21T10:06:57.696Z,2.45
2023-01-21T10:11:02.418Z,2.60
2023-01-21T10:15:13.116Z,2.64
2023-01-21T10:19:10.503Z,2.61
2023-01-21T10:23:08.596Z,2.61
2023-01-21T10:27:01.401Z,2.60
2023-01-21T10:31:18.726Z,2.67
2023-01-21T10:35:19.437Z,2.60
2023-01-21T10:39:50.502Z,2.42
2023-01-21T10:43:49.554Z,2.35
2023-01-21T10:47:49.276Z,2.36
2023-01-21T10:51:51.219Z,2.56
2023-01-21T10:56:18.110Z,2.36
2023-01-21T11:00:24.774Z,2.54
2023-01-21T11:04:22.374Z,2.46
2023-01-21T11:08:22.881Z,2.61
2023-01-21T11:12:21.165Z,2.64
2023-01-21T11:16:13.606Z,2.59
2023-01-21T11:20:39.250Z,2.59
2023-01-21T11:24:51.825Z,2.60
2023-01-21T11:28:46.033Z,2.75
2023-01-21T11:32:39.214Z,2.80
2023-01-21T11:36:32.018Z,2.76
2023-01-21T11:40:26.014Z,2.69
2023-01-21T11:44:21.086Z,2.73
2023-01-21T11:48:20.490Z,2.84
2023-01-21T11:52:16.887Z,2.93
2023-01-21T11:56:10.233Z,2.70
2023-01-21T12:00:12.816Z,2.61
2023-01-21T12:04:06.301Z,2.59
2023-01-21T12:07:59.891Z,2.61
2023-01-21T12:12:15.473Z,2.73
2023-01-21T12:16:20.156Z,2.73
2023-01-21T12:20:43.057Z,2.83
2023-01-21T12:24:54.153Z,2.80
2023-01-21T12:33:03.157Z,2.81
2023-01-21T12:37:10.747Z,2.98
2023-01-21T12:41:24.475Z,2.90
2023-01-21T12:45:21.496Z,3.12
2023-01-21T12:49:21.718Z,3.24
2023-01-21T12:53:36.825Z,3.12
2023-01-21T12:57:37.379Z,3.18
2023-01-21T13:02:00.828Z,3.12
2023-01-21T13:06:15.775Z,3.19
2023-01-21T13:10:42.444Z,3.19
2023-01-21T13:14:39.568Z,3.08
2023-01-21T13:18:42.845Z,3.07
2023-01-21T13:23:06.765Z,3.08
2023-01-21T13:27:18.678Z,2.97
2023-01-21T13:31:37.325Z,3.12
2023-01-21T13:35:52.048Z,3.17
2023-01-21T13:39:52.811Z,3.12
2023-01-21T13:44:07.417Z,3.11
2023-01-21T13:48:17.458Z,3.01
2023-01-21T13:52:37.938Z,3.08
2023-01-21T13:56:53.269Z,3.15
2023-01-21T14:01:01.439Z,3.05
2023-01-21T14:05:14.944Z,3.21
2023-01-21T14:09:16.129Z,3.36
2023-01-21T14:13:27.241Z,3.21
2023-01-21T14:17:52.434Z,3.19
2023-01-21T14:22:05.362Z,3.08
2023-01-21T14:26:16.647Z,3.14
2023-01-21T14:30:13.485Z,3.07
2023-01-21T14:34:32.093Z,3.21
2023-01-21T14:38:30.290Z,3.22
2023-01-21T14:42:41.116Z,3.18
2023-01-21T14:46:34.546Z,3.17
2023-01-21T14:50:52.198Z,3.15
2023-01-21T14:54:46.819Z,3.08
2023-01-21T14:58:39.673Z,3.04
2023-01-21T15:02:41.319Z,3.08
2023-01-21T15:06:40.297Z,3.08
2023-01-21T15:10:38.715Z,3.08
2023-01-21T15:14:35.171Z,3.07
2023-01-21T15:18:38.019Z,2.96
2023-01-21T15:22:41.462Z,2.88
2023-01-21T15:26:36.809Z,2.84
2023-01-21T15:30:54.086Z,2.81
2023-01-21T15:34:57.030Z,2.90
2023-01-21T15:38:54.353Z,2.81
2023-01-21T15:42:47.625Z,2.75
2023-01-21T15:47:04.239Z,2.77
2023-01-21T15:51:14.183Z,2.76
2023-01-21T15:55:21.528Z,2.80
2023-01-21T15:59:48.731Z,2.87
2023-01-21T16:03:56.955Z,2.84
2023-01-21T16:08:14.461Z,2.84
2023-01-21T16:12:20.053Z,2.73
2023-01-21T16:16:49.322Z,2.75
2023-01-21T16:20:45.437Z,2.77
2023-01-21T16:24:47.966Z,2.69
2023-01-21T16:28:47.642Z,2.70
2023-01-21T16:32:41.250Z,2.56
2023-01-21T16:36:40.567Z,2.64
2023-01-21T16:40:33.852Z,2.56
2023-01-21T16:44:27.960Z,2.50
2023-01-21T16:48:30.663Z,2.43
2023-01-21T16:52:25.475Z,2.43
2023-01-21T16:56:29.835Z,2.42
2023-01-21T17:00:30.301Z,2.39
2023-01-21T17:04:24.666Z,2.43
2023-01-21T17:08:18.091Z,2.42
2023-01-21T17:12:23.921Z,2.39
2023-01-21T17:16:34.191Z,2.41
2023-01-21T17:20:42.866Z,2.48
2023-01-21T17:24:40.349Z,2.43
2023-01-21T17:28:47.609Z,2.35
2023-01-21T17:32:41.804Z,2.46
2023-01-21T17:36:40.495Z,2.35
2023-01-21T17:41:01.691Z,2.38
2023-01-21T17:45:02.965Z,2.48
2023-01-21T17:49:07.966Z,2.50
2023-01-21T17:53:09.728Z,2.48
2023-01-21T17:57:03.754Z,2.41
2023-01-21T18:01:01.899Z,2.41
2023-01-21T18:04:55.674Z,2.41
2023-01-21T18:08:50.589Z,2.35
2023-01-21T18:12:43.316Z,2.35
2023-01-21T18:16:36.550Z,2.49
2023-01-21T18:20:30.855Z,2.45
2023-01-21T18:24:28.284Z,2.43
2023-01-21T18:28:27.482Z,2.48
2023-01-21T18:32:23.574Z,2.46
2023-01-21T18:36:16.905Z,2.45
2023-01-21T18:40:20.737Z,2.42
2023-01-21T18:44:15.251Z,2.43
2023-01-21T18:48:17.388Z,2.46
2023-01-21T18:52:17.323Z,2.49
2023-01-21T18:56:14.828Z,2.50
2023-01-21T19:00:32.610Z,2.48
2023-01-21T19:04:26.590Z,2.56
2023-01-21T19:08:25.008Z,2.59
2023-01-21T19:12:24.627Z,2.54
2023-01-21T19:16:20.679Z,2.56
2023-01-21T19:20:22.878Z,2.57
2023-01-21T19:24:17.826Z,2.59
2023-01-21T19:28:13.143Z,2.66
2023-01-21T19:32:08.847Z,2.64
2023-01-21T19:36:13.488Z,2.48
2023-01-21T19:40:33.513Z,2.46
2023-01-21T19:44:27.810Z,2.48
2023-01-21T19:48:22.751Z,2.59
2023-01-21T19:52:16.258Z,2.59
2023-01-21T19:56:16.719Z,2.53
2023-01-21T20:00:24.880Z,2.63
2023-01-21T20:04:19.271Z,2.56
2023-01-21T20:08:22.111Z,2.56
2023-01-21T20:12:16.120Z,2.49
2023-01-21T20:16:21.559Z,2.60
2023-01-21T20:20:21.021Z,2.56
2023-01-21T20:24:16.051Z,2.59
2023-01-21T20:28:26.403Z,2.60
2023-01-21T20:32:21.168Z,2.53
2023-01-21T20:36:20.579Z,2.49
2023-01-21T20:40:24.435Z,2.53
2023-01-21T20:44:18.251Z,2.52
2023-01-21T20:48:22.982Z,2.57
2023-01-21T20:52:19.067Z,2.54
2023-01-21T20:56:32.883Z,2.61
2023-01-21T21:00:35.546Z,2.60
2023-01-21T21:04:30.799Z,2.60
2023-01-21T21:08:27.758Z,2.66
2023-01-21T21:12:24.066Z,2.63
2023-01-21T21:16:22.740Z,2.60
2023-01-21T21:20:27.847Z,2.56
2023-01-21T21:24:23.335Z,2.67
2023-01-21T21:28:18.270Z,2.56
2023-01-21T21:32:14.305Z,2.59
2023-01-21T21:36:14.215Z,2.56
2023-01-21T21:40:08.421Z,2.48
2023-01-21T21:44:01.455Z,2.63
2023-01-21T21:48:12.796Z,2.56
2023-01-21T21:52:06.373Z,2.50
2023-01-21T21:56:13.882Z,2.49
2023-01-21T22:00:10.016Z,2.52
2023-01-21T22:04:04.564Z,2.60
2023-01-21T22:07:57.125Z,2.52
2023-01-21T22:11:49.989Z,2.56
2023-01-21T22:15:42.923Z,2.61
2023-01-21T22:19:37.761Z,2.60
2023-01-21T22:23:32.033Z,2.54
2023-01-21T22:27:24.950Z,2.59
2023-01-21T22:31:22.681Z,2.60
2023-01-21T22:35:15.491Z,2.59
2023-01-21T22:39:08.825Z,2.64
2023-01-21T22:43:01.858Z,2.59
2023-01-21T22:46:54.710Z,2.50
2023-01-21T22:50:51.972Z,2.50
2023-01-21T22:54:44.604Z,2.49
2023-01-21T22:58:37.910Z,2.50
2023-01-21T23:02:31.019Z,2.45
2023-01-21T23:06:24.467Z,2.46
2023-01-21T23:10:17.601Z,2.52
2023-01-21T23:14:10.375Z,2.56
2023-01-21T23:18:03.049Z,2.59
2023-01-21T23:21:56.123Z,2.57
2023-01-21T23:25:49.656Z,2.59
2023-01-21T23:29:42.472Z,2.63
2023-01-21T23:33:35.416Z,2.64
2023-01-21T23:37:28.207Z,2.64
2023-01-21T23:41:23.880Z,2.63
2023-01-21T23:45:17.215Z,2.53
2023-01-21T23:49:09.931Z,2.54
2023-01-21T23:53:02.804Z,2.54
2023-01-21T23:56:56.110Z,2.54
